createdAt,value
2018-02-21T00:01:35.471Z,101390.75
2018-02-21T00:04:04.665Z,101383.05
2018-02-21T00:06:33.826Z,101387.01
2018-02-21T00:09:03.277Z,101388.26
2018-02-21T00:11:32.377Z,101390.58
2018-02-21T00:14:01.628Z,101393.08
2018-02-21T00:16:30.794Z,101387.62
2018-02-21T00:19:00.070Z,101382.09
2018-02-21T00:21:29.144Z,101387.08
2018-02-21T00:23:58.684Z,101371.37
2018-02-21T00:26:28.370Z,101369.42
2018-02-21T00:28:57.525Z,101382.31
2018-02-21T00:31:26.698Z,101374.55
2018-02-21T00:33:56.022Z,101375.27
2018-02-21T00:36:25.265Z,101364.16
2018-02-21T00:38:54.277Z,101370.20
2018-02-21T00:41:23.318Z,101372.61
2018-02-21T00:43:52.590Z,101368.58
2018-02-21T00:46:21.902Z,101363.77
2018-02-21T00:48:51.112Z,101361.08
2018-02-21T00:51:20.501Z,101356.80
2018-02-21T00:53:49.909Z,101355.19
2018-02-21T00:56:18.959Z,101355.59
2018-02-21T00:58:48.185Z,101358.55
2018-02-21T01:01:17.382Z,101360.58
2018-02-21T01:03:46.681Z,101363.83
2018-02-21T01:06:15.985Z,101360.92
2018-02-21T01:08:45.353Z,101362.20
2018-02-21T01:11:14.756Z,101361.96
2018-02-21T01:13:44.074Z,101367.47
2018-02-21T01:16:13.614Z,101354.34
2018-02-21T01:18:42.904Z,101361.35
2018-02-21T01:21:12.258Z,101355.45
2018-02-21T01:23:41.394Z,101359.33
2018-02-21T01:26:10.464Z,101351.31
2018-02-21T01:28:39.650Z,101355.42
2018-02-21T01:31:08.551Z,101354.09
2018-02-21T01:33:37.460Z,101350.69
2018-02-21T01:36:06.598Z,101342.05
2018-02-21T01:38:35.610Z,101339.52
2018-02-21T01:41:04.725Z,101340.31
2018-02-21T01:43:33.863Z,101345.31
2018-02-21T01:46:03.019Z,101354.63
2018-02-21T01:48:32.498Z,101359.14
2018-02-21T01:51:01.679Z,101348.83
2018-02-21T01:53:31.021Z,101351.79
2018-02-21T01:56:00.602Z,101344.64
2018-02-21T01:58:29.689Z,101340.23
2018-02-21T02:00:59.108Z,101328.84
2018-02-21T02:03:28.250Z,101338.97
2018-02-21T02:05:57.118Z,101328.66
2018-02-21T02:08:26.271Z,101332.69
2018-02-21T02:10:55.501Z,101336.94
2018-02-21T02:13:24.414Z,101336.64
2018-02-21T02:15:53.521Z,101335.95
2018-02-21T02:18:22.401Z,101329.05
2018-02-21T02:20:51.566Z,101334.34
2018-02-21T02:23:20.588Z,101328.84
2018-02-21T02:25:49.639Z,101320.89
2018-02-21T02:28:19.249Z,101328.60
2018-02-21T02:30:48.369Z,101324.18
2018-02-21T02:33:17.719Z,101319.87
2018-02-21T02:35:47.151Z,101323.30
2018-02-21T02:38:27.750Z,101320.11
2018-02-21T02:40:56.937Z,101318.85
2018-02-21T02:43:26.068Z,101306.72
2018-02-21T02:45:55.489Z,101314.36
2018-02-21T02:48:24.538Z,101309.37
2018-02-21T02:50:53.515Z,101319.19
2018-02-21T02:53:22.541Z,101319.64
2018-02-21T02:55:51.509Z,101315.70
2018-02-21T02:58:20.570Z,101318.57
2018-02-21T03:00:49.552Z,101315.56
2018-02-21T03:03:18.727Z,101314.76
2018-02-21T03:05:47.689Z,101324.72
2018-02-21T03:08:16.579Z,101314.52
2018-02-21T03:10:46.017Z,101313.07
2018-02-21T03:13:15.080Z,101311.53
2018-02-21T03:15:44.467Z,101314.75
2018-02-21T03:18:13.525Z,101315.70
2018-02-21T03:20:43.135Z,101314.87
2018-02-21T03:23:12.285Z,101310.59
2018-02-21T03:25:41.441Z,101312.30
2018-02-21T03:28:10.792Z,101318.91
2018-02-21T03:30:39.892Z,101308.48
2018-02-21T03:33:08.698Z,101308.05
2018-02-21T03:35:37.598Z,101300.98
2018-02-21T03:38:06.721Z,101304.95
2018-02-21T03:40:36.039Z,101306.47
2018-02-21T03:43:05.422Z,101307.87
2018-02-21T03:45:34.493Z,101311.11
2018-02-21T03:48:03.513Z,101310.19
2018-02-21T03:50:32.434Z,101308.99
2018-02-21T03:53:01.623Z,101317.79
2018-02-21T03:55:30.911Z,101315.75
2018-02-21T03:58:00.417Z,101291.71
2018-02-21T04:00:29.687Z,101310.19
2018-02-21T04:02:58.940Z,101312.86
2018-02-21T04:05:28.221Z,101317.20
2018-02-21T04:07:57.081Z,101305.19
2018-02-21T04:10:26.402Z,101307.16
2018-02-21T04:12:55.563Z,101305.31
2018-02-21T04:15:24.754Z,101305.87
2018-02-21T04:17:53.621Z,101305.22
2018-02-21T04:20:23.129Z,101311.86
2018-02-21T04:22:52.265Z,101302.55
2018-02-21T04:25:21.905Z,101305.34
2018-02-21T04:27:51.033Z,101301.73
2018-02-21T04:30:20.621Z,101311.12
2018-02-21T04:32:49.705Z,101304.25
2018-02-21T04:35:19.049Z,101303.08
2018-02-21T04:37:48.328Z,101299.21
2018-02-21T04:40:17.673Z,101294.54
2018-02-21T04:42:47.042Z,101296.91
2018-02-21T04:45:16.645Z,101294.85
2018-02-21T04:47:45.597Z,101293.66
2018-02-21T04:50:14.594Z,101299.11
2018-02-21T04:52:43.726Z,101291.77
2018-02-21T04:55:18.394Z,101302.20
2018-02-21T04:57:49.708Z,101301.37
2018-02-21T05:00:18.949Z,101299.41
2018-02-21T05:02:48.002Z,101297.43
2018-02-21T05:05:17.173Z,101311.38
2018-02-21T05:07:46.330Z,101310.02
2018-02-21T05:10:15.788Z,101305.47
2018-02-21T05:12:45.309Z,101303.49
2018-02-21T05:15:14.538Z,101309.72
2018-02-21T05:17:44.122Z,101311.14
2018-02-21T05:20:13.303Z,101319.44
2018-02-21T05:22:42.869Z,101320.11
2018-02-21T05:25:12.326Z,101324.36
2018-02-21T05:27:41.493Z,101327.43
2018-02-21T05:30:10.933Z,101317.69
2018-02-21T05:32:39.947Z,101312.06
2018-02-21T05:35:09.082Z,101313.26
2018-02-21T05:37:38.382Z,101313.92
2018-02-21T05:40:07.690Z,101313.25
2018-02-21T05:42:36.924Z,101311.50
2018-02-21T05:45:06.454Z,101314.88
2018-02-21T05:47:35.690Z,101306.84
2018-02-21T05:50:04.878Z,101310.98
2018-02-21T05:52:34.876Z,101312.01
2018-02-21T05:55:04.230Z,101318.64
2018-02-21T05:57:33.446Z,101317.45
2018-02-21T06:00:02.765Z,101323.38
2018-02-21T06:02:31.821Z,101316.21
2018-02-21T06:05:01.329Z,101308.15
2018-02-21T06:07:30.382Z,101305.09
2018-02-21T06:09:59.298Z,101303.06
2018-02-21T06:12:28.426Z,101316.32
2018-02-21T06:14:58.140Z,101314.91
2018-02-21T06:17:27.438Z,101314.84
2018-02-21T06:19:56.701Z,101321.31
2018-02-21T06:22:25.918Z,101322.20
2018-02-21T06:24:55.259Z,101304.97
2018-02-21T06:27:24.644Z,101320.27
2018-02-21T06:29:53.831Z,101317.30
2018-02-21T06:32:23.129Z,101318.09
2018-02-21T06:34:52.536Z,101321.37
2018-02-21T06:37:21.530Z,101320.27
2018-02-21T06:39:50.702Z,101320.55
2018-02-21T06:42:19.751Z,101314.95
2018-02-21T06:44:48.993Z,101316.62
2018-02-21T06:47:18.197Z,101318.28
2018-02-21T06:49:47.753Z,101313.97
2018-02-21T06:52:16.881Z,101314.77
2018-02-21T06:54:46.226Z,101319.64
2018-02-21T06:57:15.145Z,101314.25
2018-02-21T06:59:44.387Z,101319.52
2018-02-21T07:02:25.192Z,101321.86
2018-02-21T07:04:54.794Z,101320.58
2018-02-21T07:07:23.918Z,101316.74
2018-02-21T07:09:53.399Z,101322.13
2018-02-21T07:12:22.890Z,101325.14
2018-02-21T07:14:52.165Z,101318.42
2018-02-21T07:17:21.388Z,101317.19
2018-02-21T07:19:50.894Z,101324.02
2018-02-21T07:22:20.308Z,101319.61
2018-02-21T07:24:49.714Z,101326.61
2018-02-21T07:27:19.005Z,101326.67
2018-02-21T07:29:48.156Z,101327.64
2018-02-21T07:32:17.588Z,101329.09
2018-02-21T07:34:47.119Z,101329.09
2018-02-21T07:37:16.461Z,101328.42
2018-02-21T07:39:45.826Z,101326.05
2018-02-21T07:42:15.004Z,101327.83
2018-02-21T07:44:44.515Z,101328.09
2018-02-21T07:47:13.820Z,101320.95
2018-02-21T07:49:43.256Z,101318.24
2018-02-21T07:52:12.369Z,101322.16
2018-02-21T07:54:41.786Z,101323.58
2018-02-21T07:57:11.276Z,101331.97
2018-02-21T07:59:40.590Z,101325.56
2018-02-21T08:02:09.915Z,101324.07
2018-02-21T08:04:40.370Z,101330.41
2018-02-21T08:07:09.465Z,101327.02
2018-02-21T08:09:38.505Z,101323.40
2018-02-21T08:12:07.677Z,101315.61
2018-02-21T08:14:36.901Z,101317.14
2018-02-21T08:17:05.905Z,101322.13
2018-02-21T08:19:35.118Z,101316.69
2018-02-21T08:22:04.526Z,101307.75
2018-02-21T08:24:34.045Z,101314.44
2018-02-21T08:27:03.248Z,101318.92
2018-02-21T08:29:32.554Z,101323.80
2018-02-21T08:32:02.048Z,101321.14
2018-02-21T08:34:31.728Z,101320.36
2018-02-21T08:37:01.254Z,101323.34
2018-02-21T08:39:30.349Z,101319.60
2018-02-21T08:41:59.368Z,101321.33
2018-02-21T08:44:28.440Z,101324.00
2018-02-21T08:46:57.901Z,101327.14
2018-02-21T08:49:27.125Z,101336.95
2018-02-21T08:51:56.310Z,101328.05
2018-02-21T08:54:25.979Z,101319.42
2018-02-21T08:56:55.870Z,101320.95
2018-02-21T08:59:25.037Z,101319.81
2018-02-21T09:01:54.484Z,101325.49
2018-02-21T09:04:23.564Z,101301.17
2018-02-21T09:06:52.764Z,101324.52
2018-02-21T09:09:22.001Z,101322.21
2018-02-21T09:11:51.098Z,101310.34
2018-02-21T09:14:21.054Z,101323.62
2018-02-21T09:16:50.601Z,101334.67
2018-02-21T09:19:20.000Z,101320.15
2018-02-21T09:21:49.526Z,101325.97
2018-02-21T09:24:19.137Z,101310.44
2018-02-21T09:26:48.516Z,101318.11
2018-02-21T09:29:17.853Z,101316.61
2018-02-21T09:31:47.206Z,101324.72
2018-02-21T09:34:16.466Z,101314.56
2018-02-21T09:36:45.892Z,101320.45
2018-02-21T09:39:15.214Z,101318.82
2018-02-21T09:41:44.631Z,101316.69
2018-02-21T09:44:13.861Z,101330.58
2018-02-21T09:46:43.225Z,101328.64
2018-02-21T09:49:13.023Z,101322.38
2018-02-21T09:51:42.943Z,101319.28
2018-02-21T09:54:12.350Z,101307.42
2018-02-21T09:56:42.465Z,101304.41
2018-02-21T09:59:12.188Z,101297.09
2018-02-21T10:01:41.759Z,101296.91
2018-02-21T10:04:12.008Z,101303.31
2018-02-21T10:06:41.417Z,101304.03
2018-02-21T10:09:10.818Z,101306.80
2018-02-21T10:11:39.905Z,101300.56
2018-02-21T10:14:09.270Z,101300.55
2018-02-21T10:16:38.237Z,101302.97
2018-02-21T10:19:07.446Z,101287.00
2018-02-21T10:21:36.493Z,101295.83
2018-02-21T10:24:05.729Z,101287.27
2018-02-21T10:26:35.174Z,101288.25
2018-02-21T10:29:05.007Z,101287.25
2018-02-21T10:31:34.631Z,101300.09
2018-02-21T10:34:04.228Z,101291.71
2018-02-21T10:36:33.515Z,101285.83
2018-02-21T10:39:02.921Z,101282.74
2018-02-21T10:41:32.738Z,101279.24
2018-02-21T10:44:02.148Z,101280.78
2018-02-21T10:46:31.621Z,101281.20
2018-02-21T10:49:01.239Z,101282.11
2018-02-21T10:51:30.285Z,101273.00
2018-02-21T10:53:59.501Z,101279.22
2018-02-21T10:56:28.889Z,101279.14
2018-02-21T10:58:58.490Z,101280.58
2018-02-21T11:01:28.082Z,101281.46
2018-02-21T11:03:57.261Z,101268.64
2018-02-21T11:06:26.680Z,101273.87
2018-02-21T11:08:55.621Z,101273.73
2018-02-21T11:11:24.875Z,101275.48
2018-02-21T11:13:54.130Z,101276.22
2018-02-21T11:16:23.539Z,101272.61
2018-02-21T11:18:52.777Z,101284.64
2018-02-21T11:21:22.236Z,101286.66
2018-02-21T11:23:51.767Z,101281.73
2018-02-21T11:26:21.067Z,101283.19
2018-02-21T11:28:50.451Z,101276.23
2018-02-21T11:31:20.407Z,101278.68
2018-02-21T11:33:49.697Z,101274.09
2018-02-21T11:36:18.697Z,101280.03
2018-02-21T11:38:47.790Z,101270.17
2018-02-21T11:41:17.438Z,101273.19
2018-02-21T11:43:47.270Z,101262.67
2018-02-21T11:46:16.536Z,101270.95
2018-02-21T11:48:45.598Z,101267.56
2018-02-21T11:51:15.016Z,101267.20
2018-02-21T11:53:44.446Z,101258.56
2018-02-21T11:56:13.481Z,101268.80
2018-02-21T11:58:42.581Z,101255.74
2018-02-21T12:01:11.906Z,101263.30
2018-02-21T12:03:40.837Z,101254.88
2018-02-21T12:06:10.205Z,101242.80
2018-02-21T12:08:39.645Z,101238.96
2018-02-21T12:11:09.310Z,101241.13
2018-02-21T12:13:38.861Z,101238.70
2018-02-21T12:16:08.190Z,101251.89
2018-02-21T12:18:37.502Z,101244.11
2018-02-21T12:21:07.053Z,101240.63
2018-02-21T12:23:36.723Z,101239.12
2018-02-21T12:26:06.454Z,101242.07
2018-02-21T12:28:35.647Z,101241.36
2018-02-21T12:31:04.661Z,101234.60
2018-02-21T12:33:33.986Z,101238.09
2018-02-21T12:36:03.278Z,101244.59
2018-02-21T12:38:32.793Z,101241.38
2018-02-21T12:44:01.642Z,101239.17
2018-02-21T12:46:30.842Z,101235.21
2018-02-21T12:49:00.219Z,101231.65
2018-02-21T12:51:29.851Z,101237.51
2018-02-21T12:53:59.367Z,101235.55
2018-02-21T12:56:29.157Z,101236.89
2018-02-21T12:58:58.596Z,101236.24
2018-02-21T13:01:27.993Z,101235.64
2018-02-21T13:04:00.039Z,101231.38
2018-02-21T13:06:29.456Z,101217.03
2018-02-21T13:09:00.757Z,101219.56
2018-02-21T13:11:30.199Z,101220.81
2018-02-21T13:14:00.376Z,101229.58
2018-02-21T13:16:30.136Z,101232.80
2018-02-21T13:19:00.053Z,101235.95
2018-02-21T13:21:29.340Z,101232.40
2018-02-21T13:23:58.860Z,101229.92
2018-02-21T13:26:29.904Z,101232.08
2018-02-21T13:28:59.510Z,101225.98
2018-02-21T13:31:29.218Z,101227.00
2018-02-21T13:33:58.725Z,101223.50
2018-02-21T13:36:28.177Z,101233.75
2018-02-21T13:38:59.276Z,101230.36
2018-02-21T13:41:28.752Z,101239.58
2018-02-21T13:43:59.184Z,101230.91
2018-02-21T13:46:28.536Z,101242.14
2018-02-21T13:48:58.116Z,101238.41
2018-02-21T13:51:27.556Z,101235.45
2018-02-21T13:53:56.921Z,101234.42
2018-02-21T13:56:26.365Z,101233.59
2018-02-21T13:58:55.305Z,101239.92
2018-02-21T14:01:25.042Z,101228.97
2018-02-21T14:03:54.613Z,101236.20
2018-02-21T14:06:24.441Z,101237.72
2018-02-21T14:08:53.947Z,101233.41
2018-02-21T14:11:23.242Z,101224.70
2018-02-21T14:13:54.009Z,101229.02
2018-02-21T14:16:23.502Z,101228.38
2018-02-21T14:18:53.250Z,101224.08
2018-02-21T14:21:22.600Z,101235.60
2018-02-21T14:23:51.890Z,101226.66
2018-02-21T14:26:21.304Z,101225.33
2018-02-21T14:28:50.385Z,101225.22
2018-02-21T14:31:19.641Z,101223.12
2018-02-21T14:33:48.800Z,101233.23
2018-02-21T14:36:17.858Z,101229.87
2018-02-21T14:38:47.715Z,101230.78
2018-02-21T14:41:17.307Z,101222.92
2018-02-21T14:43:46.446Z,101233.47
2018-02-21T14:46:16.434Z,101228.99
2018-02-21T14:48:46.622Z,101231.03
2018-02-21T14:51:15.890Z,101231.13
2018-02-21T14:53:45.150Z,101219.19
2018-02-21T14:56:14.589Z,101222.66
2018-02-21T14:58:44.394Z,101225.25
2018-02-21T15:01:14.906Z,101230.68
2018-02-21T15:03:44.369Z,101235.59
2018-02-21T15:06:13.807Z,101230.23
2018-02-21T15:08:43.138Z,101234.45
2018-02-21T15:11:12.338Z,101236.48
2018-02-21T15:13:41.710Z,101238.36
2018-02-21T15:16:16.859Z,101243.77
2018-02-21T15:18:46.564Z,101236.56
2018-02-21T15:21:15.767Z,101235.40
2018-02-21T15:23:45.665Z,101235.34
2018-02-21T15:26:14.697Z,101233.44
2018-02-21T15:28:44.108Z,101235.78
2018-02-21T15:31:13.570Z,101221.51
2018-02-21T15:33:42.961Z,101224.11
2018-02-21T15:36:12.795Z,101229.97
2018-02-21T15:38:42.220Z,101218.05
2018-02-21T15:41:11.637Z,101223.89
2018-02-21T15:43:40.821Z,101230.41
2018-02-21T15:46:11.830Z,101227.92
2018-02-21T15:48:40.902Z,101234.71
2018-02-21T15:51:10.018Z,101232.03
2018-02-21T15:53:39.497Z,101243.53
2018-02-21T15:56:08.820Z,101235.78
2018-02-21T15:58:38.066Z,101231.77
2018-02-21T16:01:07.350Z,101231.13
2018-02-21T16:03:36.777Z,101230.69
2018-02-21T16:06:06.202Z,101233.09
2018-02-21T16:08:35.653Z,101241.28
2018-02-21T16:11:05.007Z,101230.88
2018-02-21T16:13:34.223Z,101239.42
2018-02-21T16:16:03.960Z,101244.05
2018-02-21T16:18:33.181Z,101239.41
2018-02-21T16:21:02.383Z,101248.41
2018-02-21T16:23:31.860Z,101258.14
2018-02-21T16:26:01.074Z,101251.61
2018-02-21T16:28:30.557Z,101251.27
2018-02-21T16:30:59.952Z,101262.16
2018-02-21T16:33:29.429Z,101259.48
2018-02-21T16:35:58.757Z,101256.97
2018-02-21T16:38:27.789Z,101267.04
2018-02-21T16:40:56.902Z,101264.46
2018-02-21T16:43:26.526Z,101266.06
2018-02-21T16:45:56.249Z,101262.52
2018-02-21T16:48:25.231Z,101260.97
2018-02-21T16:50:54.933Z,101258.49
2018-02-21T16:53:24.276Z,101255.56
2018-02-21T16:55:53.997Z,101261.52
2018-02-21T16:58:23.538Z,101244.57
2018-02-21T17:00:53.145Z,101251.44
2018-02-21T17:03:22.820Z,101250.91
2018-02-21T17:05:52.429Z,101255.63
2018-02-21T17:08:21.594Z,101259.11
2018-02-21T17:10:50.841Z,101264.73
2018-02-21T17:13:19.934Z,101266.05
2018-02-21T17:15:49.298Z,101267.68
2018-02-21T17:18:18.485Z,101272.92
2018-02-21T17:20:47.913Z,101270.80
2018-02-21T17:23:16.978Z,101272.47
2018-02-21T17:25:46.065Z,101261.69
2018-02-21T17:28:15.385Z,101272.66
2018-02-21T17:30:44.525Z,101264.45
2018-02-21T17:33:13.626Z,101267.31
2018-02-21T17:35:43.195Z,101262.68
2018-02-21T17:38:12.619Z,101257.58
2018-02-21T17:40:47.174Z,101260.19
2018-02-21T17:43:16.257Z,101260.53
2018-02-21T17:45:45.578Z,101261.88
2018-02-21T17:48:15.125Z,101268.83
2018-02-21T17:50:44.409Z,101263.94
2018-02-21T17:53:13.744Z,101265.52
2018-02-21T17:55:43.265Z,101268.66
2018-02-21T17:58:12.246Z,101264.27
2018-02-21T18:00:41.444Z,101272.56
2018-02-21T18:03:10.610Z,101277.94
2018-02-21T18:05:40.189Z,101285.06
2018-02-21T18:08:09.265Z,101286.55
2018-02-21T18:10:38.360Z,101282.83
2018-02-21T18:13:07.357Z,101288.72
2018-02-21T18:15:36.717Z,101291.48
2018-02-21T18:18:05.777Z,101299.77
2018-02-21T18:20:34.886Z,101307.77
2018-02-21T18:23:03.814Z,101305.11
2018-02-21T18:25:32.794Z,101296.89
2018-02-21T18:28:02.027Z,101298.14
2018-02-21T18:30:30.962Z,101296.38
2018-02-21T18:33:00.254Z,101296.45
2018-02-21T18:35:29.321Z,101290.21
2018-02-21T18:37:58.838Z,101299.57
2018-02-21T18:40:28.240Z,101306.16
2018-02-21T18:42:57.090Z,101307.92
2018-02-21T18:45:26.349Z,101311.86
2018-02-21T18:47:55.652Z,101320.42
2018-02-21T18:50:24.797Z,101300.75
2018-02-21T18:52:53.938Z,101299.22
2018-02-21T18:55:22.935Z,101304.39
2018-02-21T18:57:52.256Z,101290.11
2018-02-21T19:00:21.401Z,101301.36
2018-02-21T19:02:50.375Z,101301.27
2018-02-21T19:05:19.529Z,101295.22
2018-02-21T19:07:48.425Z,101302.34
2018-02-21T19:10:17.535Z,101297.18
2018-02-21T19:12:46.590Z,101292.11
2018-02-21T19:15:15.647Z,101292.79
2018-02-21T19:17:44.969Z,101295.58
2018-02-21T19:20:14.182Z,101292.01
2018-02-21T19:22:43.437Z,101294.05
2018-02-21T19:25:12.681Z,101288.44
2018-02-21T19:27:41.822Z,101294.39
2018-02-21T19:30:11.109Z,101297.55
2018-02-21T19:32:40.544Z,101295.48
2018-02-21T19:35:09.513Z,101293.26
2018-02-21T19:37:38.882Z,101282.03
2018-02-21T19:40:07.934Z,101282.66
2018-02-21T19:42:37.093Z,101284.52
2018-02-21T19:45:06.377Z,101279.27
2018-02-21T19:47:35.272Z,101278.38
2018-02-21T19:50:04.542Z,101284.78
2018-02-21T19:52:33.613Z,101279.88
2018-02-21T19:55:02.650Z,101272.11
2018-02-21T19:57:31.827Z,101274.37
2018-02-21T20:00:00.870Z,101269.17
2018-02-21T20:02:30.422Z,101257.16
2018-02-21T20:04:59.705Z,101268.02
2018-02-21T20:07:29.402Z,101268.55
2018-02-21T20:09:58.669Z,101270.87
2018-02-21T20:12:27.810Z,101260.88
2018-02-21T20:14:57.186Z,101273.11
2018-02-21T20:17:26.297Z,101269.52
2018-02-21T20:19:55.352Z,101275.59
2018-02-21T20:22:24.414Z,101274.34
2018-02-21T20:24:53.504Z,101270.34
2018-02-21T20:27:22.474Z,101274.09
2018-02-21T20:29:51.384Z,101276.48
2018-02-21T20:32:20.469Z,101275.96
2018-02-21T20:34:49.737Z,101269.98
2018-02-21T20:37:19.102Z,101268.02
2018-02-21T20:39:48.135Z,101272.29
2018-02-21T20:42:17.343Z,101274.25
2018-02-21T20:44:46.537Z,101272.38
2018-02-21T20:47:15.533Z,101266.24
2018-02-21T20:49:44.457Z,101258.03
2018-02-21T20:52:13.338Z,101263.13
2018-02-21T20:54:42.490Z,101254.57
2018-02-21T20:57:11.826Z,101265.09
2018-02-21T20:59:40.676Z,101255.19
2018-02-21T21:02:10.228Z,101249.56
2018-02-21T21:04:39.954Z,101258.86
2018-02-21T21:07:09.166Z,101255.28
2018-02-21T21:09:38.401Z,101256.34
2018-02-21T21:12:07.459Z,101249.23
2018-02-21T21:14:36.493Z,101251.00
2018-02-21T21:17:05.501Z,101257.86
2018-02-21T21:19:34.849Z,101241.91
2018-02-21T21:22:04.338Z,101256.09
2018-02-21T21:24:33.690Z,101258.48
2018-02-21T21:27:03.048Z,101251.28
2018-02-21T21:29:32.264Z,101252.52
2018-02-21T21:32:01.510Z,101251.28
2018-02-21T21:34:30.836Z,101252.59
2018-02-21T21:36:59.908Z,101257.23
2018-02-21T21:39:29.085Z,101255.74
2018-02-21T21:41:57.958Z,101261.53
2018-02-21T21:44:27.056Z,101262.39
2018-02-21T21:46:56.581Z,101262.41
2018-02-21T21:49:25.597Z,101264.37
2018-02-21T21:51:54.934Z,101266.77
2018-02-21T21:54:24.294Z,101265.45
2018-02-21T21:56:53.710Z,101265.69
2018-02-21T21:59:23.338Z,101266.59
2018-02-21T22:01:52.625Z,101258.39
2018-02-21T22:04:22.085Z,101258.38
2018-02-21T22:06:51.122Z,101257.69
2018-02-21T22:09:20.672Z,101261.58
2018-02-21T22:11:49.762Z,101275.67
2018-02-21T22:14:19.250Z,101264.34
2018-02-21T22:16:48.503Z,101265.52
2018-02-21T22:19:17.946Z,101261.60
2018-02-21T22:21:47.074Z,101261.95
2018-02-21T22:24:16.232Z,101255.56
2018-02-21T22:26:45.642Z,101253.22
2018-02-21T22:29:14.926Z,101256.87
2018-02-21T22:31:44.486Z,101251.08
2018-02-21T22:34:13.525Z,101247.62
2018-02-21T22:36:42.950Z,101249.75
2018-02-21T22:39:12.149Z,101254.46
2018-02-21T22:41:41.664Z,101246.63
2018-02-21T22:44:11.089Z,101249.06
2018-02-21T22:46:40.522Z,101248.67
2018-02-21T22:49:09.854Z,101244.33
2018-02-21T22:51:39.083Z,101251.72
2018-02-21T22:54:08.489Z,101250.64
2018-02-21T22:56:37.834Z,101250.81
2018-02-21T22:59:07.186Z,101241.13
2018-02-21T23:01:36.349Z,101240.92
2018-02-21T23:04:05.551Z,101245.94
2018-02-21T23:06:34.971Z,101244.41
2018-02-21T23:09:04.461Z,101249.92
2018-02-21T23:11:33.626Z,101243.33
2018-02-21T23:14:02.537Z,101245.92
2018-02-21T23:16:31.738Z,101238.88
2018-02-21T23:19:01.425Z,101233.79
2018-02-21T23:21:30.794Z,101235.94
2018-02-21T23:23:59.926Z,101236.48
2018-02-21T23:26:29.233Z,101237.12
2018-02-21T23:28:58.332Z,101239.43
2018-02-21T23:31:27.346Z,101232.56
2018-02-21T23:33:56.340Z,101234.88
2018-02-21T23:36:25.576Z,101228.27
2018-02-21T23:38:54.806Z,101228.91
2018-02-21T23:41:24.053Z,101226.48
2018-02-21T23:43:53.109Z,101226.13
2018-02-21T23:46:22.753Z,101222.23
2018-02-21T23:48:52.056Z,101223.29
2018-02-21T23:51:21.514Z,101222.14
2018-02-21T23:53:50.801Z,101223.37
2018-02-21T23:56:20.009Z,101224.55
2018-02-21T23:58:49.602Z,101218.73
